createdAt,value
2022-08-26T00:00:01.856Z,977.47
2022-08-26T00:01:01.698Z,977.51
2022-08-26T00:02:01.824Z,977.47
2022-08-26T00:03:01.702Z,977.49
2022-08-26T00:04:01.936Z,977.48
2022-08-26T00:05:01.676Z,977.49
2022-08-26T00:06:01.823Z,977.47
2022-08-26T00:07:01.657Z,977.49
2022-08-26T00:08:01.896Z,977.45
2022-08-26T00:09:01.657Z,977.50
2022-08-26T00:10:01.820Z,977.51
2022-08-26T00:11:01.671Z,977.52
2022-08-26T00:12:01.544Z,977.44
2022-08-26T00:13:01.731Z,977.45
2022-08-26T00:14:01.522Z,977.44
2022-08-26T00:15:01.663Z,977.50
2022-08-26T00:16:01.522Z,977.46
2022-08-26T00:17:01.486Z,977.43
2022-08-26T00:18:01.572Z,977.44
2022-08-26T00:19:01.432Z,977.45
2022-08-26T00:20:01.502Z,977.51
2022-08-26T00:21:01.667Z,977.44
2022-08-26T00:22:01.506Z,977.47
2022-08-26T00:23:01.506Z,977.51
2022-08-26T00:24:01.496Z,977.46
2022-08-26T00:25:01.377Z,977.42
2022-08-26T00:26:01.346Z,977.39
2022-08-26T00:27:01.346Z,977.42
2022-08-26T00:28:01.516Z,977.46
2022-08-26T00:29:01.406Z,977.41
2022-08-26T00:30:01.506Z,977.42
2022-08-26T00:31:01.362Z,977.44
2022-08-26T00:32:01.341Z,977.38
2022-08-26T00:33:01.362Z,977.43
2022-08-26T00:34:01.291Z,977.44
2022-08-26T00:35:01.341Z,977.45
2022-08-26T00:36:01.211Z,977.44
2022-08-26T00:37:01.332Z,977.39
2022-08-26T00:38:01.193Z,977.42
2022-08-26T00:39:01.925Z,977.43
2022-08-26T00:40:01.301Z,977.43
2022-08-26T00:41:01.141Z,977.41
2022-08-26T00:42:01.196Z,977.38
2022-08-26T00:43:01.443Z,977.39
2022-08-26T00:44:01.197Z,977.38
2022-08-26T00:45:01.337Z,977.38
2022-08-26T00:46:01.269Z,977.34
2022-08-26T00:47:01.141Z,977.38
2022-08-26T00:48:01.186Z,977.38
2022-08-26T00:49:01.038Z,977.39
2022-08-26T00:50:01.176Z,977.41
2022-08-26T00:51:01.036Z,977.35
2022-08-26T00:52:01.182Z,977.33
2022-08-26T00:53:01.165Z,977.34
2022-08-26T00:54:01.002Z,977.36
2022-08-26T00:55:01.031Z,977.33
2022-08-26T00:56:00.932Z,977.29
2022-08-26T00:57:01.011Z,977.34
2022-08-26T00:58:01.022Z,977.33
2022-08-26T00:59:01.010Z,977.27
2022-08-26T01:00:01.171Z,977.31
2022-08-26T01:01:00.949Z,977.31
2022-08-26T01:02:02.600Z,977.28
2022-08-26T01:03:01.161Z,977.35
2022-08-26T01:04:00.997Z,977.33
2022-08-26T01:05:00.806Z,977.37
2022-08-26T01:06:00.887Z,977.30
2022-08-26T01:07:00.817Z,977.29
2022-08-26T01:08:00.896Z,977.30
2022-08-26T01:09:01.018Z,977.27
2022-08-26T01:10:00.917Z,977.26
2022-08-26T01:11:00.788Z,977.19
2022-08-26T01:12:00.856Z,977.21
2022-08-26T01:13:00.771Z,977.25
2022-08-26T01:14:00.711Z,977.20
2022-08-26T01:15:00.698Z,977.22
2022-08-26T01:16:00.759Z,977.25
2022-08-26T01:17:00.701Z,977.22
2022-08-26T01:18:00.851Z,977.24
2022-08-26T01:19:00.723Z,977.23
2022-08-26T01:20:00.871Z,977.26
2022-08-26T01:21:00.763Z,977.22
2022-08-26T01:22:00.852Z,977.24
2022-08-26T01:23:01.641Z,977.22
2022-08-26T01:24:00.597Z,977.22
2022-08-26T01:25:00.715Z,977.25
2022-08-26T01:26:00.937Z,977.21
2022-08-26T01:27:00.535Z,977.16
2022-08-26T01:28:00.556Z,977.17
2022-08-26T01:29:00.738Z,977.22
2022-08-26T01:30:00.538Z,977.20
2022-08-26T01:31:00.747Z,977.14
2022-08-26T01:32:00.773Z,977.18
2022-08-26T01:33:00.757Z,977.20
2022-08-26T01:34:00.556Z,977.21
2022-08-26T01:35:00.481Z,977.20
2022-08-26T01:36:00.404Z,977.15
2022-08-26T01:37:00.711Z,977.18
2022-08-26T01:38:00.364Z,977.16
2022-08-26T01:39:00.391Z,977.12
2022-08-26T01:40:00.498Z,977.13
2022-08-26T01:41:00.401Z,977.13
2022-08-26T01:42:02.958Z,977.16
2022-08-26T01:43:00.477Z,977.15
2022-08-26T01:44:00.534Z,977.12
2022-08-26T01:45:00.397Z,977.09
2022-08-26T01:46:00.318Z,977.13
2022-08-26T01:47:00.396Z,977.14
2022-08-26T01:48:00.236Z,977.13
2022-08-26T01:49:00.279Z,977.10
2022-08-26T01:50:00.224Z,977.14
2022-08-26T01:51:00.376Z,977.14
2022-08-26T01:52:00.217Z,977.13
2022-08-26T01:53:00.167Z,977.18
2022-08-26T01:54:00.216Z,977.09
2022-08-26T01:55:00.436Z,977.16
2022-08-26T01:56:00.241Z,977.21
2022-08-26T01:57:00.121Z,977.14
2022-08-26T01:58:00.222Z,977.21
2022-08-26T01:59:00.382Z,977.16
2022-08-26T02:00:00.225Z,977.17
2022-08-26T02:01:00.420Z,977.17
2022-08-26T02:02:00.058Z,977.18
2022-08-26T02:03:00.071Z,977.17
2022-08-26T02:04:00.231Z,977.17
2022-08-26T02:05:00.151Z,977.20
2022-08-26T02:06:00.271Z,977.19
2022-08-26T02:07:00.066Z,977.21
2022-08-26T02:08:00.217Z,977.19
2022-08-26T02:09:00.076Z,977.23
2022-08-26T02:10:00.246Z,977.22
2022-08-26T02:11:00.089Z,977.21
2022-08-26T02:12:00.236Z,977.20
2022-08-26T02:13:00.076Z,977.18
2022-08-26T02:13:59.895Z,977.17
2022-08-26T02:15:00.056Z,977.21
2022-08-26T02:15:59.948Z,977.15
2022-08-26T02:16:59.871Z,977.17
2022-08-26T02:17:59.980Z,977.21
2022-08-26T02:19:00.154Z,977.14
2022-08-26T02:19:59.911Z,977.17
2022-08-26T02:20:59.816Z,977.17
2022-08-26T02:21:59.921Z,977.18
2022-08-26T02:23:00.088Z,977.14
2022-08-26T02:23:59.891Z,977.17
2022-08-26T02:24:59.833Z,977.17
2022-08-26T02:25:59.741Z,977.23
2022-08-26T02:26:59.733Z,977.21
2022-08-26T02:27:59.726Z,977.24
2022-08-26T02:28:59.756Z,977.22
2022-08-26T02:29:59.688Z,977.25
2022-08-26T02:30:59.817Z,977.19
2022-08-26T02:31:59.920Z,977.17
2022-08-26T02:32:59.748Z,977.25
2022-08-26T02:33:59.917Z,977.23
2022-08-26T02:34:59.606Z,977.26
2022-08-26T02:35:59.966Z,977.18
2022-08-26T02:36:59.735Z,977.23
2022-08-26T02:37:59.586Z,977.19
2022-08-26T02:38:59.767Z,977.19
2022-08-26T02:39:59.764Z,977.19
2022-08-26T02:40:59.763Z,977.15
2022-08-26T02:41:59.602Z,977.17
2022-08-26T02:42:59.522Z,977.21
2022-08-26T02:43:59.601Z,977.17
2022-08-26T02:44:59.754Z,977.19
2022-08-26T02:46:01.981Z,977.19
2022-08-26T02:46:59.623Z,977.25
2022-08-26T02:47:59.776Z,977.24
2022-08-26T02:48:59.461Z,977.20
2022-08-26T02:49:59.596Z,977.23
2022-08-26T02:50:59.426Z,977.24
2022-08-26T02:51:59.467Z,977.25
2022-08-26T02:52:59.422Z,977.28
2022-08-26T02:53:59.376Z,977.28
2022-08-26T02:54:59.437Z,977.23
2022-08-26T02:55:59.821Z,977.23
2022-08-26T02:56:59.756Z,977.25
2022-08-26T02:57:59.316Z,977.28
2022-08-26T02:58:59.416Z,977.23
2022-08-26T02:59:59.327Z,977.25
2022-08-26T03:00:59.551Z,977.23
2022-08-26T03:01:59.365Z,977.25
2022-08-26T03:02:59.434Z,977.18
2022-08-26T03:03:59.273Z,977.19
2022-08-26T03:05:02.054Z,977.18
2022-08-26T03:05:59.241Z,977.18
2022-08-26T03:06:59.519Z,977.19
2022-08-26T03:07:59.262Z,977.19
2022-08-26T03:08:59.172Z,977.22
2022-08-26T03:09:59.257Z,977.25
2022-08-26T03:10:59.141Z,977.14
2022-08-26T03:11:59.267Z,977.23
2022-08-26T03:12:59.498Z,977.20
2022-08-26T03:13:59.266Z,977.16
2022-08-26T03:14:59.116Z,977.10
2022-08-26T03:15:59.361Z,977.19
2022-08-26T03:16:59.095Z,977.15
2022-08-26T03:17:59.326Z,977.16
2022-08-26T03:18:59.096Z,977.18
2022-08-26T03:19:59.282Z,977.19
2022-08-26T03:20:59.098Z,977.15
2022-08-26T03:21:59.280Z,977.15
2022-08-26T03:22:59.181Z,977.17
2022-08-26T03:23:58.980Z,977.18
2022-08-26T03:24:59.101Z,977.12
2022-08-26T03:25:58.953Z,977.18
2022-08-26T03:26:59.091Z,977.15
2022-08-26T03:27:59.407Z,977.15
2022-08-26T03:28:59.091Z,977.15
2022-08-26T03:29:58.931Z,977.14
2022-08-26T03:30:59.145Z,977.10
2022-08-26T03:31:58.947Z,977.05
2022-08-26T03:32:58.861Z,977.09
2022-08-26T03:33:59.309Z,977.10
2022-08-26T03:34:59.116Z,977.09
2022-08-26T03:35:59.006Z,977.17
2022-08-26T03:36:58.817Z,977.17
2022-08-26T03:37:58.796Z,977.15
2022-08-26T03:38:58.776Z,977.16
2022-08-26T03:39:58.990Z,977.11
2022-08-26T03:40:58.796Z,977.12
2022-08-26T03:41:58.788Z,977.14
2022-08-26T03:42:58.775Z,977.07
2022-08-26T03:44:01.746Z,977.19
2022-08-26T03:44:58.790Z,977.21
2022-08-26T03:45:58.953Z,977.14
2022-08-26T03:46:58.802Z,977.16
2022-08-26T03:47:58.710Z,977.17
2022-08-26T03:48:58.787Z,977.12
2022-08-26T03:49:58.622Z,977.12
2022-08-26T03:50:58.801Z,977.09
2022-08-26T03:51:58.611Z,977.10
2022-08-26T03:52:58.583Z,977.10
2022-08-26T03:53:58.684Z,977.07
2022-08-26T03:54:58.566Z,977.12
2022-08-26T03:55:58.636Z,977.11
2022-08-26T03:56:58.796Z,977.09
2022-08-26T03:57:58.636Z,977.09
2022-08-26T03:58:58.534Z,977.10
2022-08-26T03:59:58.687Z,977.10
2022-08-26T04:00:58.797Z,977.17
2022-08-26T04:01:58.683Z,977.18
2022-08-26T04:02:58.623Z,977.23
2022-08-26T04:04:00.601Z,977.17
2022-08-26T04:04:58.457Z,977.19
2022-08-26T04:05:58.701Z,977.22
2022-08-26T04:06:58.515Z,977.21
2022-08-26T04:07:58.641Z,977.19
2022-08-26T04:08:58.471Z,977.19
2022-08-26T04:09:58.631Z,977.22
2022-08-26T04:10:58.531Z,977.17
2022-08-26T04:11:58.321Z,977.20
2022-08-26T04:12:58.884Z,977.22
2022-08-26T04:13:58.301Z,977.20
2022-08-26T04:14:58.281Z,977.20
2022-08-26T04:15:58.334Z,977.19
2022-08-26T04:16:58.535Z,977.20
2022-08-26T04:17:58.396Z,977.16
2022-08-26T04:18:58.456Z,977.16
2022-08-26T04:19:58.326Z,977.24
2022-08-26T04:20:58.457Z,977.16
2022-08-26T04:21:58.326Z,977.19
2022-08-26T04:22:58.195Z,977.23
2022-08-26T04:23:58.466Z,977.22
2022-08-26T04:24:58.215Z,977.25
2022-08-26T04:25:58.307Z,977.26
2022-08-26T04:26:58.158Z,977.24
2022-08-26T04:27:58.320Z,977.25
2022-08-26T04:28:58.121Z,977.22
2022-08-26T04:29:58.310Z,977.22
2022-08-26T04:30:58.313Z,977.23
2022-08-26T04:31:58.311Z,977.29
2022-08-26T04:32:58.151Z,977.19
2022-08-26T04:33:58.040Z,977.20
2022-08-26T04:34:58.039Z,977.22
2022-08-26T04:35:58.102Z,977.23
2022-08-26T04:36:58.198Z,977.22
2022-08-26T04:37:57.982Z,977.17
2022-08-26T04:38:57.996Z,977.24
2022-08-26T04:39:58.033Z,977.23
2022-08-26T04:40:57.949Z,977.22
2022-08-26T04:41:58.055Z,977.16
2022-08-26T04:42:57.936Z,977.21
2022-08-26T04:43:57.986Z,977.13
2022-08-26T04:44:57.896Z,977.15
2022-08-26T04:45:58.041Z,977.12
2022-08-26T04:46:57.857Z,977.10
2022-08-26T04:47:58.055Z,977.15
2022-08-26T04:48:57.826Z,977.13
2022-08-26T04:49:57.841Z,977.17
2022-08-26T04:50:57.831Z,977.13
2022-08-26T04:51:57.991Z,977.11
2022-08-26T04:52:57.941Z,977.09
2022-08-26T04:53:57.810Z,977.11
2022-08-26T04:54:57.851Z,977.12
2022-08-26T04:55:57.971Z,977.13
2022-08-26T04:56:57.884Z,977.18
2022-08-26T04:57:57.761Z,977.16
2022-08-26T04:58:58.152Z,977.16
2022-08-26T04:59:57.972Z,977.13
2022-08-26T05:00:57.827Z,977.18
2022-08-26T05:01:57.752Z,977.19
2022-08-26T05:02:57.710Z,977.14
2022-08-26T05:03:57.716Z,977.15
2022-08-26T05:04:57.726Z,977.13
2022-08-26T05:05:57.727Z,977.16
2022-08-26T05:07:02.716Z,977.21
2022-08-26T05:07:57.657Z,977.17
2022-08-26T05:08:57.567Z,977.10
2022-08-26T05:09:57.666Z,977.15
2022-08-26T05:10:57.962Z,977.17
2022-08-26T05:11:57.677Z,977.16
2022-08-26T05:12:57.541Z,977.10
2022-08-26T05:14:01.621Z,977.14
2022-08-26T05:14:57.502Z,977.14
2022-08-26T05:16:01.226Z,977.14
2022-08-26T05:16:57.511Z,977.14
2022-08-26T05:17:57.652Z,977.18
2022-08-26T05:18:57.493Z,977.21
2022-08-26T05:19:57.421Z,977.15
2022-08-26T05:20:57.492Z,977.21
2022-08-26T05:21:57.476Z,977.11
2022-08-26T05:22:57.506Z,977.17
2022-08-26T05:23:57.386Z,977.17
2022-08-26T05:24:57.357Z,977.20
2022-08-26T05:26:00.344Z,977.15
2022-08-26T05:26:57.506Z,977.16
2022-08-26T05:27:57.416Z,977.22
2022-08-26T05:28:57.497Z,977.22
2022-08-26T05:29:57.345Z,977.22
2022-08-26T05:30:57.553Z,977.24
2022-08-26T05:31:57.351Z,977.23
2022-08-26T05:32:57.371Z,977.25
2022-08-26T05:33:57.433Z,977.26
2022-08-26T05:34:57.292Z,977.31
2022-08-26T05:35:57.342Z,977.29
2022-08-26T05:36:57.181Z,977.27
2022-08-26T05:37:57.353Z,977.30
2022-08-26T05:38:57.182Z,977.30
2022-08-26T05:39:57.176Z,977.30
2022-08-26T05:40:57.243Z,977.32
2022-08-26T05:41:57.183Z,977.30
2022-08-26T05:42:57.177Z,977.23
2022-08-26T05:43:57.106Z,977.25
2022-08-26T05:44:57.096Z,977.31
2022-08-26T05:45:57.390Z,977.24
2022-08-26T05:46:57.247Z,977.24
2022-08-26T05:47:57.046Z,977.25
2022-08-26T05:48:57.177Z,977.26
2022-08-26T05:49:57.026Z,977.29
2022-08-26T05:50:56.997Z,977.30
2022-08-26T05:51:57.097Z,977.32
2022-08-26T05:52:57.191Z,977.41
2022-08-26T05:53:57.040Z,977.40
2022-08-26T05:54:57.171Z,977.43
2022-08-26T05:55:57.021Z,977.43
2022-08-26T05:56:57.252Z,977.40
2022-08-26T05:57:57.023Z,977.42
2022-08-26T05:58:58.533Z,977.41
2022-08-26T05:59:57.011Z,977.45
2022-08-26T06:00:56.870Z,977.45
2022-08-26T06:01:56.917Z,977.51
2022-08-26T06:02:56.978Z,977.45
2022-08-26T06:03:56.857Z,977.50
2022-08-26T06:04:56.867Z,977.46
2022-08-26T06:05:56.816Z,977.51
2022-08-26T06:06:56.859Z,977.48
2022-08-26T06:07:56.837Z,977.45
2022-08-26T06:08:56.866Z,977.43
2022-08-26T06:10:15.388Z,977.47
2022-08-26T06:10:56.847Z,977.35
2022-08-26T06:11:56.736Z,977.40
2022-08-26T06:12:56.811Z,977.45
2022-08-26T06:14:01.225Z,977.47
2022-08-26T06:14:56.701Z,977.41
2022-08-26T06:15:56.723Z,977.46
2022-08-26T06:16:56.653Z,977.43
2022-08-26T06:17:56.721Z,977.48
2022-08-26T06:18:56.691Z,977.48
2022-08-26T06:19:56.702Z,977.54
2022-08-26T06:20:57.758Z,977.51
2022-08-26T06:21:56.691Z,977.54
2022-08-26T06:22:56.589Z,977.52
2022-08-26T06:23:56.646Z,977.52
2022-08-26T06:24:56.556Z,977.51
2022-08-26T06:25:56.716Z,977.54
2022-08-26T06:26:56.546Z,977.55
2022-08-26T06:27:56.507Z,977.55
2022-08-26T06:28:56.548Z,977.50
2022-08-26T06:29:56.767Z,977.55
2022-08-26T06:30:56.593Z,977.54
2022-08-26T06:31:56.695Z,977.57
2022-08-26T06:32:56.550Z,977.55
2022-08-26T06:33:56.423Z,977.53
2022-08-26T06:34:56.640Z,977.49
2022-08-26T06:35:56.402Z,977.56
2022-08-26T06:36:56.541Z,977.56
2022-08-26T06:37:56.381Z,977.52
2022-08-26T06:38:56.361Z,977.55
2022-08-26T06:39:56.415Z,977.56
2022-08-26T06:40:56.391Z,977.55
2022-08-26T06:41:56.371Z,977.50
2022-08-26T06:42:56.546Z,977.54
2022-08-26T06:43:56.386Z,977.57
2022-08-26T06:44:56.566Z,977.58
2022-08-26T06:45:56.481Z,977.56
2022-08-26T06:46:56.326Z,977.58
2022-08-26T06:47:56.376Z,977.58
2022-08-26T06:48:56.237Z,977.57
2022-08-26T06:49:56.216Z,977.57
2022-08-26T06:50:56.226Z,977.51
2022-08-26T06:51:56.417Z,977.55
2022-08-26T06:52:56.333Z,977.55
2022-08-26T06:53:56.372Z,977.59
2022-08-26T06:54:56.231Z,977.57
2022-08-26T06:55:56.131Z,977.55
2022-08-26T06:56:56.120Z,977.53
2022-08-26T06:57:56.111Z,977.51
2022-08-26T06:58:56.290Z,977.63
2022-08-26T06:59:56.081Z,977.57
2022-08-26T07:00:59.531Z,977.56
2022-08-26T07:01:56.120Z,977.57
2022-08-26T07:02:56.325Z,977.56
2022-08-26T07:03:57.086Z,977.57
2022-08-26T07:04:56.801Z,977.64
2022-08-26T07:05:56.057Z,977.57
2022-08-26T07:06:55.996Z,977.52
2022-08-26T07:07:55.976Z,977.61
2022-08-26T07:08:55.967Z,977.62
2022-08-26T07:09:56.146Z,977.59
2022-08-26T07:10:56.073Z,977.56
2022-08-26T07:11:56.092Z,977.55
2022-08-26T07:12:55.962Z,977.59
2022-08-26T07:13:56.071Z,977.56
2022-08-26T07:14:55.892Z,977.58
2022-08-26T07:15:57.279Z,977.64
2022-08-26T07:16:55.891Z,977.69
2022-08-26T07:17:55.860Z,977.64
2022-08-26T07:18:55.891Z,977.65
2022-08-26T07:19:56.074Z,977.65
2022-08-26T07:20:55.961Z,977.60
2022-08-26T07:21:55.796Z,977.67
2022-08-26T07:22:55.906Z,977.67
2022-08-26T07:24:01.223Z,977.69
2022-08-26T07:24:55.906Z,977.70
2022-08-26T07:25:55.755Z,977.75
2022-08-26T07:26:55.966Z,977.67
2022-08-26T07:27:55.746Z,977.77
2022-08-26T07:28:55.706Z,977.73
2022-08-26T07:29:55.736Z,977.72
2022-08-26T07:30:55.774Z,977.71
2022-08-26T07:31:56.416Z,977.72
2022-08-26T07:32:55.992Z,977.72
2022-08-26T07:33:55.761Z,977.66
2022-08-26T07:34:55.902Z,977.72
2022-08-26T07:35:55.624Z,977.72
2022-08-26T07:36:55.600Z,977.74
2022-08-26T07:37:57.134Z,977.66
2022-08-26T07:38:55.591Z,977.70
2022-08-26T07:39:55.866Z,977.67
2022-08-26T07:40:55.616Z,977.63
2022-08-26T07:41:55.757Z,977.70
2022-08-26T07:42:55.577Z,977.71
2022-08-26T07:43:55.577Z,977.65
2022-08-26T07:44:55.586Z,977.61
2022-08-26T07:45:55.794Z,977.61
2022-08-26T07:46:55.577Z,977.63
2022-08-26T07:47:55.466Z,977.58
2022-08-26T07:48:55.645Z,977.61
2022-08-26T07:49:55.752Z,977.59
2022-08-26T07:50:55.451Z,977.56
2022-08-26T07:51:55.440Z,977.59
2022-08-26T07:52:55.431Z,977.62
2022-08-26T07:53:55.491Z,977.60
2022-08-26T07:54:55.410Z,977.56
2022-08-26T07:55:55.411Z,977.59
2022-08-26T07:56:55.886Z,977.64
2022-08-26T07:57:55.411Z,977.58
2022-08-26T07:58:55.596Z,977.61
2022-08-26T07:59:55.547Z,977.62
2022-08-26T08:00:55.298Z,977.67
2022-08-26T08:01:55.435Z,977.68
2022-08-26T08:02:55.542Z,977.64
2022-08-26T08:03:55.416Z,977.63
2022-08-26T08:04:55.370Z,977.59
2022-08-26T08:05:55.286Z,977.60
2022-08-26T08:06:55.260Z,977.62
2022-08-26T08:08:00.857Z,977.67
2022-08-26T08:08:55.266Z,977.65
2022-08-26T08:09:55.431Z,977.67
2022-08-26T08:10:55.263Z,977.65
2022-08-26T08:11:55.491Z,977.67
2022-08-26T08:12:55.144Z,977.69
2022-08-26T08:13:56.298Z,977.67
2022-08-26T08:14:55.252Z,977.69
2022-08-26T08:15:55.095Z,977.66
2022-08-26T08:16:55.421Z,977.67
2022-08-26T08:17:58.862Z,977.66
2022-08-26T08:18:55.338Z,977.66
2022-08-26T08:19:55.115Z,977.64
2022-08-26T08:21:10.894Z,977.67
2022-08-26T08:21:55.025Z,977.59
2022-08-26T08:22:55.077Z,977.60
2022-08-26T08:23:55.099Z,977.65
2022-08-26T08:24:54.996Z,977.61
2022-08-26T08:25:55.096Z,977.62
2022-08-26T08:26:54.981Z,977.60
2022-08-26T08:27:54.960Z,977.61
2022-08-26T08:28:55.271Z,977.65
2022-08-26T08:29:55.150Z,977.64
2022-08-26T08:30:54.980Z,977.62
2022-08-26T08:31:56.828Z,977.62
2022-08-26T08:32:54.951Z,977.63
2022-08-26T08:33:55.172Z,977.64
2022-08-26T08:34:54.931Z,977.64
2022-08-26T08:35:55.111Z,977.61
2022-08-26T08:36:54.949Z,977.60
2022-08-26T08:37:55.177Z,977.59
2022-08-26T08:38:54.946Z,977.66
2022-08-26T08:39:54.903Z,977.65
2022-08-26T08:40:54.786Z,977.60
2022-08-26T08:41:54.776Z,977.64
2022-08-26T08:42:54.936Z,977.66
2022-08-26T08:43:54.777Z,977.66
2022-08-26T08:44:55.026Z,977.66
2022-08-26T08:45:54.847Z,977.65
2022-08-26T08:46:54.711Z,977.58
2022-08-26T08:47:54.892Z,977.60
2022-08-26T08:48:54.743Z,977.58
2022-08-26T08:49:54.781Z,977.60
2022-08-26T08:50:54.721Z,977.60
2022-08-26T08:51:54.772Z,977.54
2022-08-26T08:52:54.623Z,977.54
2022-08-26T08:53:55.028Z,977.56
2022-08-26T08:54:54.636Z,977.53
2022-08-26T08:55:54.587Z,977.56
2022-08-26T08:56:54.705Z,977.54
2022-08-26T08:57:54.780Z,977.55
2022-08-26T08:58:56.702Z,977.61
2022-08-26T08:59:54.786Z,977.58
2022-08-26T09:00:54.677Z,977.59
2022-08-26T09:01:54.575Z,977.55
2022-08-26T09:02:54.626Z,977.56
2022-08-26T09:03:54.501Z,977.55
2022-08-26T09:04:54.631Z,977.53
2022-08-26T09:05:54.461Z,977.53
2022-08-26T09:06:54.482Z,977.55
2022-08-26T09:07:54.523Z,977.55
2022-08-26T09:08:54.622Z,977.56
2022-08-26T09:09:54.561Z,977.59
2022-08-26T09:10:54.632Z,977.60
2022-08-26T09:11:54.451Z,977.57
2022-08-26T09:12:54.436Z,977.54
2022-08-26T09:13:54.456Z,977.61
2022-08-26T09:14:54.337Z,977.60
2022-08-26T09:15:54.455Z,977.58
2022-08-26T09:16:54.340Z,977.58
2022-08-26T09:17:54.456Z,977.57
2022-08-26T09:18:54.377Z,977.58
2022-08-26T09:19:54.276Z,977.60
2022-08-26T09:20:54.296Z,977.60
2022-08-26T09:21:54.260Z,977.59
2022-08-26T09:22:54.322Z,977.56
2022-08-26T09:23:54.461Z,977.54
2022-08-26T09:24:54.371Z,977.56
2022-08-26T09:26:54.313Z,977.51
2022-08-26T09:27:54.181Z,977.52
2022-08-26T09:28:54.292Z,977.55
2022-08-26T09:29:54.131Z,977.52
2022-08-26T09:30:54.263Z,977.53
2022-08-26T09:31:54.137Z,977.58
2022-08-26T09:32:55.895Z,977.57
2022-08-26T09:33:54.136Z,977.51
2022-08-26T09:34:54.085Z,977.51
2022-08-26T09:35:54.138Z,977.51
2022-08-26T09:36:54.213Z,977.49
2022-08-26T09:37:54.188Z,977.53
2022-08-26T09:38:54.021Z,977.51
2022-08-26T09:39:54.209Z,977.52
2022-08-26T09:40:59.049Z,977.50
2022-08-26T09:41:54.072Z,977.52
2022-08-26T09:42:53.982Z,977.54
2022-08-26T09:43:53.971Z,977.51
2022-08-26T09:44:53.971Z,977.47
2022-08-26T09:45:57.126Z,977.47
2022-08-26T09:46:53.981Z,977.49
2022-08-26T09:47:53.961Z,977.48
2022-08-26T09:48:53.883Z,977.46
2022-08-26T09:49:54.147Z,977.45
2022-08-26T09:50:53.986Z,977.44
2022-08-26T09:51:53.856Z,977.45
2022-08-26T09:52:53.985Z,977.47
2022-08-26T09:53:53.885Z,977.47
2022-08-26T09:54:53.815Z,977.49
2022-08-26T09:55:53.816Z,977.43
2022-08-26T09:56:53.776Z,977.38
2022-08-26T09:57:53.817Z,977.45
2022-08-26T09:58:54.004Z,977.37
2022-08-26T09:59:53.901Z,977.45
2022-08-26T10:00:54.068Z,977.44
2022-08-26T10:01:53.967Z,977.42
2022-08-26T10:02:57.800Z,977.41
2022-08-26T10:03:53.724Z,977.40
2022-08-26T10:04:53.661Z,977.39
2022-08-26T10:05:53.721Z,977.42
2022-08-26T10:06:53.651Z,977.39
2022-08-26T10:07:53.656Z,977.38
2022-08-26T10:08:54.250Z,977.38
2022-08-26T10:09:53.828Z,977.35
2022-08-26T10:10:53.735Z,977.33
2022-08-26T10:11:53.607Z,977.28
2022-08-26T10:12:53.666Z,977.31
2022-08-26T10:13:53.827Z,977.26
2022-08-26T10:14:53.658Z,977.26
2022-08-26T10:15:53.605Z,977.26
2022-08-26T10:16:53.626Z,977.24
2022-08-26T10:17:53.531Z,977.21
2022-08-26T10:18:59.433Z,977.23
2022-08-26T10:19:56.655Z,977.22
2022-08-26T10:20:53.671Z,977.21
2022-08-26T10:21:54.106Z,977.19
2022-08-26T10:22:53.451Z,977.22
2022-08-26T10:23:53.501Z,977.20
2022-08-26T10:24:55.304Z,977.19
2022-08-26T10:25:53.512Z,977.16
2022-08-26T10:26:53.476Z,977.18
2022-08-26T10:27:54.081Z,977.15
2022-08-26T10:28:53.656Z,977.10
2022-08-26T10:29:53.544Z,977.12
2022-08-26T10:30:53.346Z,977.18
2022-08-26T10:31:53.543Z,977.16
2022-08-26T10:32:53.417Z,977.13
2022-08-26T10:33:57.993Z,977.11
2022-08-26T10:34:53.336Z,977.12
2022-08-26T10:35:53.302Z,977.09
2022-08-26T10:37:16.285Z,977.08
2022-08-26T10:37:53.292Z,977.05
2022-08-26T10:38:53.412Z,977.05
2022-08-26T10:39:57.296Z,977.05
2022-08-26T10:40:53.331Z,977.02
2022-08-26T10:41:53.203Z,977.04
2022-08-26T10:42:53.331Z,977.05
2022-08-26T10:43:53.181Z,976.98
2022-08-26T10:44:53.426Z,976.98
2022-08-26T10:45:53.270Z,976.99
2022-08-26T10:46:53.336Z,976.96
2022-08-26T10:47:53.178Z,976.92
2022-08-26T10:48:53.357Z,976.93
2022-08-26T10:49:54.799Z,976.87
2022-08-26T10:50:53.416Z,976.89
2022-08-26T10:51:53.176Z,976.88
2022-08-26T10:52:53.045Z,976.88
2022-08-26T10:53:53.201Z,976.86
2022-08-26T10:54:53.351Z,976.87
2022-08-26T10:55:53.267Z,976.82
2022-08-26T10:56:53.021Z,976.82
2022-08-26T10:57:53.012Z,976.82
2022-08-26T10:58:53.038Z,976.80
2022-08-26T10:59:52.965Z,976.80
2022-08-26T11:00:53.115Z,976.81
2022-08-26T11:01:53.011Z,976.82
2022-08-26T11:02:53.031Z,976.81
2022-08-26T11:03:53.001Z,976.79
2022-08-26T11:04:53.067Z,976.82
2022-08-26T11:05:53.188Z,976.77
2022-08-26T11:06:53.087Z,976.73
2022-08-26T11:07:52.885Z,976.80
2022-08-26T11:08:52.868Z,976.72
2022-08-26T11:09:52.862Z,976.71
2022-08-26T11:10:53.041Z,976.70
2022-08-26T11:11:52.886Z,976.69
2022-08-26T11:12:53.412Z,976.65
2022-08-26T11:13:52.884Z,976.72
2022-08-26T11:14:58.823Z,976.71
2022-08-26T11:15:52.872Z,976.72
2022-08-26T11:16:52.847Z,976.68
2022-08-26T11:17:52.923Z,976.68
2022-08-26T11:18:52.742Z,976.65
2022-08-26T11:20:01.975Z,976.65
2022-08-26T11:20:52.736Z,976.63
2022-08-26T11:21:52.706Z,976.60
2022-08-26T11:22:52.770Z,976.62
2022-08-26T11:23:53.028Z,976.60
2022-08-26T11:24:52.696Z,976.57
2022-08-26T11:25:52.857Z,976.55
2022-08-26T11:26:55.337Z,976.58
2022-08-26T11:27:52.856Z,976.56
2022-08-26T11:28:52.686Z,976.53
2022-08-26T11:29:52.882Z,976.49
2022-08-26T11:30:57.500Z,976.50
2022-08-26T11:31:52.629Z,976.46
2022-08-26T11:32:52.691Z,976.48
2022-08-26T11:33:52.611Z,976.44
2022-08-26T11:34:52.702Z,976.50
2022-08-26T11:35:52.541Z,976.49
2022-08-26T11:36:52.511Z,976.44
2022-08-26T11:37:52.531Z,976.48
2022-08-26T11:38:52.690Z,976.48
2022-08-26T11:39:55.348Z,976.39
2022-08-26T11:40:52.696Z,976.44
2022-08-26T11:41:53.033Z,976.44
2022-08-26T11:42:52.447Z,976.36
2022-08-26T11:43:52.546Z,976.40
2022-08-26T11:44:52.456Z,976.36
2022-08-26T11:45:52.573Z,976.36
2022-08-26T11:46:52.406Z,976.37
2022-08-26T11:47:52.547Z,976.40
2022-08-26T11:48:52.392Z,976.38
2022-08-26T11:49:52.641Z,976.38
2022-08-26T11:50:52.382Z,976.33
2022-08-26T11:51:52.531Z,976.36
2022-08-26T11:52:52.374Z,976.35
2022-08-26T11:53:52.301Z,976.37
2022-08-26T11:54:52.263Z,976.35
2022-08-26T11:55:52.321Z,976.27
2022-08-26T11:56:52.384Z,976.26
2022-08-26T11:57:52.237Z,976.21
2022-08-26T11:58:52.226Z,976.23
2022-08-26T11:59:52.219Z,976.25
2022-08-26T12:00:52.446Z,976.23
2022-08-26T12:01:52.217Z,976.22
2022-08-26T12:02:52.709Z,976.23
2022-08-26T12:03:52.323Z,976.17
2022-08-26T12:04:52.366Z,976.19
2022-08-26T12:05:52.227Z,976.23
2022-08-26T12:06:52.460Z,976.21
2022-08-26T12:07:53.063Z,976.24
2022-08-26T12:08:52.096Z,976.20
2022-08-26T12:09:52.073Z,976.15
2022-08-26T12:10:52.061Z,976.20
2022-08-26T12:11:52.062Z,976.16
2022-08-26T12:12:52.141Z,976.18
2022-08-26T12:13:52.021Z,976.22
2022-08-26T12:14:52.051Z,976.18
2022-08-26T12:15:52.221Z,976.19
2022-08-26T12:16:52.144Z,976.17
2022-08-26T12:18:03.556Z,976.17
2022-08-26T12:18:52.136Z,976.15
2022-08-26T12:19:51.940Z,976.13
2022-08-26T12:20:52.066Z,976.13
2022-08-26T12:21:51.976Z,976.12
2022-08-26T12:22:52.056Z,976.12
2022-08-26T12:23:51.917Z,976.07
2022-08-26T12:24:52.067Z,976.09
2022-08-26T12:25:51.921Z,976.06
2022-08-26T12:26:52.142Z,976.09
2022-08-26T12:27:54.064Z,976.10
2022-08-26T12:28:51.842Z,976.11